LPPT METAR

LPPT METAR

@METAR_LPPT

Followers121
Following229

METAR reports for LPPT/LIS - Lisbon Airport (Portugal) every 30 minutes. At XX:15 and XX:45. @MarioGaudencio 📞

Lisbon, Portugal
Joined on February 01, 2017

Hi there, do you want more Twitter Likes and Followers?

Statistics

We looked inside some of the tweets by @METAR_LPPT and here's what we found interesting.

Inside 100 Tweets

Time between tweets:
29 minutes
Average replies
0
Average retweets
1
Average likes
0
Tweets with photos
0 / 100
Tweets with videos
0 / 100
Tweets with links
0 / 100
LPPT METAR
28 minutes ago

LPPT 220030Z 33009KT CAVOK 15/13 Q1017 #aviation #airplanes #metar #weather #avgeek #aviationlovers

0
1
1

LPPT 220000Z 33008KT 9999 FEW008 15/13 Q1017 #aviation #airplanes #metar #weather #avgeek #aviationlovers

0
0
0

LPPT 212330Z 33008KT 9999 FEW008 15/13 Q1017 #aviation #airplanes #metar #weather #avgeek #aviationlovers

0
1
0

LPPT 212300Z 33008KT 9999 FEW009 15/13 Q1017 #aviation #airplanes #metar #weather #avgeek #aviationlovers

0
1
0

LPPT 212230Z 32008KT 9999 FEW009 15/13 Q1017 #aviation #airplanes #metar #weather #avgeek #aviationlovers

0
1
0

LPPT 212200Z 32009KT 280V340 9999 FEW009 16/13 Q1018 #aviation #airplanes #metar #weather #avgeek #aviationlovers

0
1
0

LPPT 212130Z 31009KT 280V340 9999 FEW012 16/13 Q1017 #aviation #airplanes #metar #weather #avgeek #aviationlovers

0
1
0

LPPT 212100Z 32009KT 280V340 9999 FEW014 16/13 Q1017 #aviation #airplanes #metar #weather #avgeek #aviationlovers

0
0
0

LPPT 212030Z 31008KT 280V340 9999 FEW014 16/13 Q1017 #aviation #airplanes #metar #weather #avgeek #aviationlovers

0
0
0

LPPT 212000Z 31010KT 9999 FEW025 16/13 Q1017 #aviation #airplanes #metar #weather #avgeek #aviationlovers

0
0
0

LPPT 211930Z 31010KT 290V350 9999 FEW025 17/12 Q1016 #aviation #airplanes #metar #weather #avgeek #aviationlovers

0
1
0

LPPT 211900Z 30011KT 9999 FEW025 18/12 Q1016 #aviation #airplanes #metar #weather #avgeek #aviationlovers

0
1
0

LPPT 211830Z 30010KT 9999 FEW025 19/12 Q1016 #aviation #airplanes #metar #weather #avgeek #aviationlovers

0
1
0

LPPT 211800Z 30010KT 9999 FEW030 19/12 Q1016 #aviation #airplanes #metar #weather #avgeek #aviationlovers

0
1
0

LPPT 211730Z 31009KT 270V340 9999 FEW030 20/13 Q1016 #aviation #airplanes #metar #weather #avgeek #aviationlovers

0
1
0

LPPT 211700Z 30011KT 260V330 9999 FEW035 20/12 Q1016 #aviation #airplanes #metar #weather #avgeek #aviationlovers

0
0
0

LPPT 211630Z 28011KT 250V320 9999 FEW035 21/12 Q1016 #aviation #airplanes #metar #weather #avgeek #aviationlovers

0
1
0

LPPT 211600Z 31011KT 270V330 9999 FEW035 21/12 Q1016 #aviation #airplanes #metar #weather #avgeek #aviationlovers

0
1
0

LPPT 211530Z 31010KT 270V340 9999 FEW036 21/12 Q1016 #aviation #airplanes #metar #weather #avgeek #aviationlovers

0
1
0

LPPT 211500Z 31009KT 270V340 9999 FEW036 22/11 Q1016 #aviation #airplanes #metar #weather #avgeek #aviationlovers

0
0
0
Next Page